Terminal Aerodrome Forecast
Issued by NWS

Home | Current Version | Previous Version | Text Only | Print | Product List | Glossary On
Versions: 1 2 3 4 5 6 7 8 9 10 11 12 13 14
000
FTUS42 KGSP 252320
TAFHKY
TAF
KHKY 252320Z 2600/2624 24005KT P6SM VCSH FEW060 SCT120
     FM260200 VRB02KT P6SM FEW200
      TEMPO 2610/2613 5SM BR SCT030
     FM261300 VRB02KT P6SM FEW250
     FM261600 25003KT P6SM SCT050
     FM261800 24005KT P6SM BKN050 PROB30 2618/2624 4SM -TSRA
      OVC035CB=

USA.gov is the U.S. government's official web portal to all federal, state and local government web resources and services.